MDST

Cibao International Airport

Santiago, Dominican Republic
TAF MDST 181000Z 1812/1912 12006KT 9999 SCT016 BKN070 PROB40 1812/1818 6000 TSRA FEW012CB BKN014 BKN070
Issued Valid From Valid To
Sep-18 @ 10:00 UTC
(8 hours ago)
Sep-18 @ 12:00 UTC
(6 hours ago)
Sep-19 @ 12:00 UTC
(in 18 hours)
Sep-18 @ 12:00 to Sep-19 @ 12:00
TAF MDST 181000Z 1812/1912 12006KT 9999 SCT016 BKN070
Wind Visibility Clouds
120° at 6 knots 10,000+ meters
  • Scattered at 1,600' AGL
  • Broken at 7,000' AGL
Probable  (Probability 40%) Sep-18 @ 12:00 to Sep-18 @ 18:00
PROB40 1812/1818 6000 TSRA FEW012CB BKN014 BKN070
Visibility Clouds Conditions
6,003 meters
  • Few at 1,200' AGL
  • Broken at 1,400' AGL
  • Broken at 7,000' AGL
  • Thunderstorm
  • Rain
TAF MDST 181000Z 1812/1912 12006KT 9999 SCT016 BKN070 PROB40 1812/1818 6000 TSRA FEW012CB BKN014 BKN070
Issued Sep-18 @ 10:00 UTC
(8 hours ago)
Valid From Sep-18 @ 12:00 UTC
(6 hours ago)
Valid To Sep-19 @ 12:00 UTC
(in 18 hours)
Sep-18 @ 12:00 - Sep-19 @ 12:00
Wind Visibility
120° at 6 knots 10,000+ meters
Clouds
  • Scattered at 1,600' AGL
  • Broken at 7,000' AGL
Probability 40% Probable Sep-18 @ 12:00 - Sep-18 @ 18:00
Clouds
  • Few at 1,200' AGL
  • Broken at 1,400' AGL
  • Broken at 7,000' AGL
Conditions
  • Thunderstorm
  • Rain